Time;durP1;ratioP1;P1;durP2;ratioP2;P2;SDS_P1;SDS_P2;PMS_P1;PMS_P2;Temp;Humidity;BMP_temperature;BMP_pressure;BME280_temperature;BME280_humidity;BME280_pressure;Samples;Min_cycle;Max_cycle;Signal;HPM_P1;HPM_P2
2022/05/10 00:00:35;;;;;;;12.00;3.42;;;;;;;8.54;54.05;102001.91;2053591;28;20309;-65
2022/05/10 00:01:38;;;;;;;6.57;3.20;;;;;;;8.55;54.12;101998.22;2074830;28;20280;-64
2022/05/10 00:02:43;;;;;;;10.18;3.83;;;;;;;8.53;54.20;102001.09;2085513;28;20305;-64
2022/05/10 00:03:45;;;;;;;7.43;3.63;;;;;;;8.54;54.28;101997.41;2083575;28;20283;-64
2022/05/10 00:04:53;;;;;;;12.00;3.60;;;;;;;8.56;53.78;101995.28;2078322;28;20659;-64
2022/05/10 00:05:59;;;;;;;13.85;3.55;;;;;;;8.53;53.80;101990.38;2078081;28;20284;-64
2022/05/10 00:07:04;;;;;;;9.18;3.35;;;;;;;8.53;53.12;101985.03;2070477;28;20284;-64
2022/05/10 00:08:10;;;;;;;8.95;3.60;;;;;;;8.48;52.71;101984.91;2069090;28;20277;-64
2022/05/10 00:09:14;;;;;;;8.27;3.63;;;;;;;8.44;52.66;101985.59;2077919;28;20272;-64
2022/05/10 00:10:19;;;;;;;12.70;3.45;;;;;;;8.54;52.58;101984.00;2073776;28;20959;-64
2022/05/10 00:11:22;;;;;;;12.75;3.30;;;;;;;8.47;52.29;101979.75;2068276;28;20311;-64
2022/05/10 00:12:25;;;;;;;12.80;3.20;;;;;;;8.43;51.64;101982.09;2068183;28;20289;-64
2022/05/10 00:13:28;;;;;;;8.70;3.05;;;;;;;8.51;51.84;101986.28;2060216;28;20292;-64
2022/05/10 00:14:33;;;;;;;7.93;3.10;;;;;;;8.44;51.35;101981.03;2051807;28;20290;-64
2022/05/10 00:15:35;;;;;;;7.25;3.28;;;;;;;8.47;51.42;101977.91;2066858;28;20792;-65
2022/05/10 00:16:45;;;;;;;12.30;3.45;;;;;;;8.49;51.31;101975.00;2057797;28;20286;-65
2022/05/10 00:17:50;;;;;;;;;;;;;;;8.45;51.13;101977.31;2069412;28;20285;-65
2022/05/10 00:18:54;;;;;;;7.70;2.58;;;;;;;8.43;50.81;101983.97;2077081;28;19917;-65
2022/05/10 00:19:57;;;;;;;8.18;3.05;;;;;;;8.40;51.48;101973.69;2076998;28;20284;-63
2022/05/10 00:21:01;;;;;;;13.65;3.22;;;;;;;8.43;50.42;101974.03;2070931;28;20288;-65
2022/05/10 00:22:05;;;;;;;10.88;2.60;;;;;;;8.36;50.35;101974.13;2059989;28;20286;-65
2022/05/10 00:23:10;;;;;;;8.35;2.58;;;;;;;8.43;50.74;101981.28;2051787;28;20788;-65
2022/05/10 00:24:15;;;;;;;6.63;2.70;;;;;;;8.43;50.33;101973.22;2059941;28;20300;-65
2022/05/10 00:25:27;;;;;;;5.32;2.45;;;;;;;8.45;50.38;101974.66;2072445;28;20295;-65
2022/05/10 00:26:29;;;;;;;14.00;2.70;;;;;;;8.46;50.05;101972.78;2079329;28;20287;-64
2022/05/10 00:27:35;;;;;;;5.70;2.70;;;;;;;8.43;49.72;101973.22;2080493;28;20128;-64
2022/05/10 00:28:37;;;;;;;7.65;2.80;;;;;;;8.43;49.50;101970.56;2067533;28;20327;-65
2022/05/10 00:29:40;;;;;;;8.55;2.60;;;;;;;8.41;49.53;101970.78;2068279;28;20296;-65
2022/05/10 00:30:43;;;;;;;9.35;2.90;;;;;;;8.38;49.79;101965.88;2075712;28;20287;-64
2022/05/10 00:31:48;;;;;;;10.50;3.78;;;;;;;8.38;49.64;101965.88;2079718;28;20303;-64
2022/05/10 00:32:51;;;;;;;12.23;2.83;;;;;;;8.41;49.58;101965.41;2076599;28;20734;-64
2022/05/10 00:33:55;;;;;;;5.45;2.50;;;;;;;8.45;49.10;101961.25;2074920;28;20288;-64
2022/05/10 00:34:58;;;;;;;7.15;2.40;;;;;;;8.42;48.94;101950.97;2080048;28;20283;-64
2022/05/10 00:36:03;;;;;;;6.60;2.60;;;;;;;8.49;48.51;101959.72;2075280;28;20291;-65
2022/05/10 00:37:13;;;;;;;8.85;2.45;;;;;;;8.43;48.95;101963.31;2070616;28;20284;-65
2022/05/10 00:38:15;;;;;;;10.23;2.90;;;;;;;8.50;48.76;101961.34;2074054;28;21034;-65
2022/05/10 00:39:23;;;;;;;9.13;2.45;;;;;;;8.56;48.73;101957.75;2075262;28;20339;-64
2022/05/10 00:40:31;;;;;;;10.40;2.65;;;;;;;8.62;48.94;101952.53;2060648;28;20294;-64
2022/05/10 00:41:45;;;;;;;7.80;2.40;;;;;;;8.64;48.73;101953.09;2068322;28;20803;-64
2022/05/10 00:43:17;;;;;;;4.95;2.40;;;;;;;8.56;48.13;101951.56;2070206;28;20292;-64
2022/05/10 00:44:31;;;;;;;7.88;2.47;;;;;;;8.57;48.40;101953.19;2074970;28;20628;-66
2022/05/10 00:45:42;;;;;;;5.82;2.65;;;;;;;8.55;48.21;101949.97;2076422;28;20300;-65
2022/05/10 00:47:13;;;;;;;10.85;2.65;;;;;;;8.57;48.34;101948.69;2078111;28;20974;-64
2022/05/10 00:48:23;;;;;;;4.70;2.28;;;;;;;8.54;47.76;101950.97;2076093;28;20334;-66
2022/05/10 00:49:34;;;;;;;9.45;2.78;;;;;;;8.46;47.75;101952.16;2080232;28;20850;-65
2022/05/10 00:50:48;;;;;;;7.43;2.65;;;;;;;8.53;47.90;101950.16;2077748;28;20670;-65
2022/05/10 00:52:01;;;;;;;8.35;2.88;;;;;;;8.62;47.95;101944.47;2079014;28;20310;-65
2022/05/10 00:53:09;;;;;;;8.50;2.85;;;;;;;8.53;47.92;101942.13;2075480;28;20303;-65
2022/05/10 00:54:35;;;;;;;8.50;2.53;;;;;;;8.57;46.98;101946.00;2080143;28;20663;-65
2022/05/10 00:55:57;;;;;;;5.03;2.38;;;;;;;8.55;47.42;101942.72;2080345;28;20288;-65
2022/05/10 00:57:10;;;;;;;9.95;2.55;;;;;;;8.49;47.36;101930.25;2077447;28;20287;-65
2022/05/10 00:58:32;;;;;;;6.15;2.35;;;;;;;8.56;46.68;101930.94;2077028;28;21040;-65
2022/05/10 00:59:43;;;;;;;7.60;2.53;;;;;;;8.57;46.29;101923.72;2078834;28;20284;-65
2022/05/10 01:00:45;;;;;;;5.57;2.22;;;;;;;8.59;46.06;101925.13;2080904;28;20943;-65
2022/05/10 01:01:52;;;;;;;9.23;2.53;;;;;;;8.68;45.32;101927.47;2082011;28;20072;-65
2022/05/10 01:03:15;;;;;;;5.90;2.22;;;;;;;8.72;45.44;101924.09;2077257;28;20276;-66
2022/05/10 01:04:39;;;;;;;4.07;2.15;;;;;;;8.77;45.27;101926.09;2077730;28;20291;-65
2022/05/10 01:05:45;;;;;;;6.70;2.25;;;;;;;8.77;44.98;101926.09;2076295;28;20276;-66
2022/05/10 01:06:54;;;;;;;9.30;2.22;;;;;;;8.80;44.82;101921.06;2076940;28;20284;-65
2022/05/10 01:08:15;;;;;;;3.75;2.10;;;;;;;8.88;44.76;101922.56;2074264;28;20293;-65
2022/05/10 01:09:32;;;;;;;5.45;2.33;;;;;;;8.87;44.43;101915.59;2071014;28;20665;-64
2022/05/10 01:10:53;;;;;;;9.65;1.95;;;;;;;8.84;44.02;101915.25;2074418;28;20291;-64
2022/05/10 01:12:12;;;;;;;7.28;2.22;;;;;;;8.84;44.28;101913.38;2067111;28;20292;-66
2022/05/10 01:13:23;;;;;;;9.82;2.10;;;;;;;8.86;43.71;101903.22;2074204;28;20304;-65
2022/05/10 01:14:38;;;;;;;6.72;2.03;;;;;;;8.90;42.78;101904.38;2063530;28;20058;-65
2022/05/10 01:15:48;;;;;;;5.13;1.75;;;;;;;8.92;42.53;101907.66;2062400;28;20989;-64
2022/05/10 01:16:53;;;;;;;5.82;2.60;;;;;;;8.96;43.38;101903.44;2069903;28;20292;-65
2022/05/10 01:17:59;;;;;;;3.55;2.20;;;;;;;9.00;42.64;101907.28;2071753;28;20296;-64
2022/05/10 01:19:03;;;;;;;7.45;1.92;;;;;;;9.00;42.37;101907.28;2067607;28;20293;-64
2022/05/10 01:20:08;;;;;;;4.88;1.85;;;;;;;9.08;42.47;101905.28;2075982;28;20280;-65
2022/05/10 01:21:50;;;;;;;8.65;1.98;;;;;;;9.08;42.20;101905.28;2075896;28;20292;-65
2022/05/10 01:23:09;;;;;;;6.50;2.22;;;;;;;9.13;42.10;101908.09;2075782;28;20284;-65
2022/05/10 01:24:25;;;;;;;3.53;1.88;;;;;;;9.15;41.92;101906.00;2078622;28;20785;-65
2022/05/10 01:25:47;;;;;;;7.00;2.17;;;;;;;9.04;41.94;101900.41;2077658;28;20608;-64
2022/05/10 01:27:21;;;;;;;3.88;2.08;;;;;;;9.09;42.38;101898.91;2078604;28;20299;-64
2022/05/10 01:28:30;;;;;;;6.93;2.30;;;;;;;9.10;42.29;101898.66;2077182;28;20279;-64
2022/05/10 01:29:37;;;;;;;7.63;2.00;;;;;;;9.05;42.47;101907.41;2068605;28;20288;-64
2022/05/10 01:30:43;;;;;;;7.35;2.10;;;;;;;8.98;42.53;101906.69;2070454;28;20280;-65
2022/05/10 01:33:35;;;;;;;6.53;2.53;;;;;;;9.04;42.44;101904.94;2058015;28;20658;-64
2022/05/10 01:34:39;;;;;;;3.20;2.20;;;;;;;9.04;42.64;101900.41;2081250;28;20283;-64
2022/05/10 01:35:48;;;;;;;11.43;2.33;;;;;;;8.98;42.79;101900.53;2076552;28;20300;-64
2022/05/10 01:37:00;;;;;;;5.28;2.50;;;;;;;9.01;42.56;101895.50;2077855;28;20299;-64
2022/05/10 01:38:08;;;;;;;5.53;1.90;;;;;;;8.95;42.44;101895.63;2082886;28;20275;-64
2022/05/10 01:39:23;;;;;;;4.18;1.95;;;;;;;8.93;42.53;101892.38;2078214;28;20633;-64
2022/05/10 01:40:51;;;;;;;8.30;2.35;;;;;;;8.96;42.46;101897.28;2079648;28;20648;-64
2022/05/10 01:42:08;;;;;;;4.28;1.90;;;;;;;8.98;42.22;101890.59;2086223;28;20802;-64
2022/05/10 01:43:20;;;;;;;4.75;2.20;;;;;;;8.97;43.18;101893.53;2076109;28;20288;-64
2022/05/10 01:44:33;;;;;;;3.50;1.92;;;;;;;8.96;42.64;101892.72;2076551;28;20284;-64
2022/05/10 01:45:51;;;;;;;4.95;2.05;;;;;;;8.88;43.00;101885.03;2073999;28;20292;-65
2022/05/10 01:47:05;;;;;;;4.40;1.80;;;;;;;8.86;42.91;101887.13;2074445;28;20280;-63
2022/05/10 01:48:15;;;;;;;5.38;2.00;;;;;;;8.90;42.41;101885.59;2076114;28;20303;-64
2022/05/10 01:49:37;;;;;;;5.97;2.38;;;;;;;8.91;43.08;101878.38;2075528;28;20700;-64
2022/05/10 01:50:54;;;;;;;5.35;2.10;;;;;;;8.91;42.92;101889.91;2078760;28;20287;-64
2022/05/10 01:52:16;;;;;;;4.43;1.85;;;;;;;8.90;42.88;101880.25;2072719;28;20284;-65
2022/05/10 01:53:47;;;;;;;4.18;2.00;;;;;;;8.87;42.62;101878.03;2078379;28;20284;-65
2022/05/10 01:55:33;;;;;;;5.93;2.10;;;;;;;8.89;42.56;101875.94;2078128;28;20307;-64
2022/05/10 01:56:36;;;;;;;6.45;2.00;;;;;;;8.96;42.42;101873.94;2057874;28;20293;-64
2022/05/10 01:57:40;;;;;;;6.10;1.60;;;;;;;8.98;42.35;101879.88;2076975;28;20295;-64
2022/05/10 01:58:45;;;;;;;6.60;2.20;;;;;;;9.02;41.76;101877.56;2076488;28;20284;-64
2022/05/10 01:59:55;;;;;;;6.10;2.10;;;;;;;9.03;42.19;101871.94;2075069;28;20288;-64
2022/05/10 02:01:01;;;;;;;2.95;1.75;;;;;;;9.01;41.86;101874.03;2077241;28;20287;-64
2022/05/10 02:02:05;;;;;;;4.82;2.00;;;;;;;9.05;41.98;101867.16;2076995;28;20322;-64
2022/05/10 02:03:34;;;;;;;2.03;1.50;;;;;;;9.04;41.74;101868.19;2068909;28;20292;-63
2022/05/10 02:04:42;;;;;;;6.28;1.88;;;;;;;9.01;41.57;101868.66;2070421;28;20288;-64
2022/05/10 02:05:56;;;;;;;8.10;2.30;;;;;;;9.07;41.84;101858.06;2054191;28;20467;-64
2022/05/10 02:07:08;;;;;;;6.75;1.98;;;;;;;9.03;41.46;101866.56;2064889;28;20054;-67
2022/05/10 02:08:25;;;;;;;4.47;1.70;;;;;;;9.04;41.82;101865.50;2077577;28;20299;-66
2022/05/10 02:09:31;;;;;;;4.55;2.10;;;;;;;9.10;41.29;101863.75;2070988;28;20296;-66
2022/05/10 02:10:45;;;;;;;4.85;2.13;;;;;;;9.12;40.60;101869.72;2079165;28;20302;-67
2022/05/10 02:11:57;;;;;;;3.58;1.90;;;;;;;9.14;40.78;101864.09;2078987;28;20299;-66
2022/05/10 02:13:14;;;;;;;5.75;1.70;;;;;;;9.16;40.84;101864.69;2077723;28;20747;-66
2022/05/10 02:14:35;;;;;;;3.63;1.98;;;;;;;9.15;40.66;101852.34;2070608;28;20289;-66
2022/05/10 02:15:59;;;;;;;7.13;1.80;;;;;;;9.17;41.00;101856.38;2072642;28;20283;-66
2022/05/10 02:17:08;;;;;;;3.83;1.75;;;;;;;9.19;40.84;101853.47;2077888;28;20311;-66
2022/05/10 02:18:32;;;;;;;5.22;2.00;;;;;;;9.16;40.71;101853.97;2077948;28;20636;-66
2022/05/10 02:19:45;;;;;;;3.05;1.63;;;;;;;9.22;40.02;101856.50;2071514;28;20284;-66
2022/05/10 02:21:03;;;;;;;6.57;1.67;;;;;;;9.18;40.92;101854.53;2077523;28;20308;-65
2022/05/10 02:22:12;;;;;;;6.53;2.20;;;;;;;9.17;40.18;101855.59;2076692;28;20295;-65
2022/05/10 02:23:28;;;;;;;4.35;1.80;;;;;;;9.18;40.18;101849.19;2076015;28;20748;-67
2022/05/10 02:24:49;;;;;;;4.70;1.80;;;;;;;9.20;39.96;101847.06;2076952;28;20640;-66
2022/05/10 02:25:58;;;;;;;;;;;;;;;9.20;40.07;101847.06;2078029;28;20659;-66
2022/05/10 02:27:06;;;;;;;7.10;1.88;;;;;;;9.24;39.56;101843.69;2080408;28;20634;-67
2022/05/10 02:28:22;;;;;;;4.60;1.90;;;;;;;9.20;40.30;101845.19;2077056;28;20299;-67
2022/05/10 02:29:40;;;;;;;4.57;1.85;;;;;;;9.18;40.20;101846.50;2074833;28;20288;-67
2022/05/10 02:30:44;;;;;;;4.07;1.90;;;;;;;9.19;40.51;101848.13;2078949;28;20809;-67
2022/05/10 02:33:17;;;;;;;3.25;1.80;;;;;;;9.08;40.81;101836.38;2074430;28;20786;-67
2022/05/10 02:34:21;;;;;;;5.80;2.70;;;;;;;9.07;40.78;101836.59;2078331;28;20292;-66
2022/05/10 02:35:23;;;;;;;4.15;1.90;;;;;;;9.05;40.52;101832.28;2078054;28;20296;-66
2022/05/10 02:36:27;;;;;;;4.10;1.65;;;;;;;9.05;40.74;101840.34;2078299;28;20288;-65
2022/05/10 02:37:33;;;;;;;5.90;1.90;;;;;;;9.03;40.23;101834.38;2075539;28;20310;-66
2022/05/10 02:38:38;;;;;;;4.78;1.50;;;;;;;9.03;40.71;101837.06;2076662;28;20322;-64
2022/05/10 02:39:41;;;;;;;5.07;2.20;;;;;;;9.07;40.18;101844.66;2068625;28;20280;-64
2022/05/10 02:40:45;;;;;;;4.25;2.00;;;;;;;9.12;40.49;101836.72;2075635;28;20300;-64
2022/05/10 02:41:50;;;;;;;5.45;1.90;;;;;;;9.11;40.61;101835.91;2082794;28;20302;-64
2022/05/10 02:42:55;;;;;;;5.30;2.00;;;;;;;9.14;40.51;101835.44;2076039;28;20293;-64
2022/05/10 02:44:01;;;;;;;5.13;1.95;;;;;;;9.15;40.35;101836.25;2071711;28;20646;-64
2022/05/10 02:45:04;;;;;;;3.63;1.70;;;;;;;9.14;40.14;101834.59;2070737;28;20292;-64
2022/05/10 02:46:09;;;;;;;4.80;1.90;;;;;;;9.14;40.11;101837.28;2077004;28;20284;-64
2022/05/10 02:47:14;;;;;;;2.67;1.70;;;;;;;9.13;39.47;101839.16;2076320;28;20289;-64
2022/05/10 02:48:27;;;;;;;4.78;2.10;;;;;;;9.18;40.10;101833.09;2068851;28;20677;-65
2022/05/10 02:49:31;;;;;;;4.55;2.00;;;;;;;9.14;39.96;101840.78;2075929;28;20314;-65
2022/05/10 02:50:36;;;;;;;6.22;2.10;;;;;;;9.11;39.75;101829.69;2076345;28;20295;-65
2022/05/10 02:51:41;;;;;;;4.35;2.15;;;;;;;9.16;39.82;101832.50;2072116;28;20299;-65
2022/05/10 02:52:45;;;;;;;4.45;1.90;;;;;;;9.16;40.24;101832.50;2066554;28;20305;-64
2022/05/10 02:53:49;;;;;;;6.53;2.40;;;;;;;9.17;40.11;101823.38;2068133;28;20953;-64
2022/05/10 02:55:08;;;;;;;7.28;2.20;;;;;;;9.19;40.04;101823.97;2074883;28;20299;-63
2022/05/10 02:56:15;;;;;;;10.20;2.70;;;;;;;9.17;39.90;101823.38;2063776;28;20949;-64
2022/05/10 02:57:22;;;;;;;6.30;2.53;;;;;;;9.15;40.01;101825.50;2054433;28;20057;-64
2022/05/10 02:58:53;;;;;;;3.88;2.20;;;;;;;9.21;40.49;101824.56;2067784;28;20478;-64
2022/05/10 02:59:56;;;;;;;;;;;;;;;9.21;40.12;101825.38;2072519;28;20453;-64
2022/05/10 03:01:26;;;;;;;5.05;2.00;;;;;;;9.19;40.18;101821.28;2076630;28;19924;-64
2022/05/10 03:02:39;;;;;;;4.18;1.77;;;;;;;9.19;40.16;101821.28;2071500;28;20379;-64
2022/05/10 03:03:44;;;;;;;3.53;2.10;;;;;;;9.17;39.54;101826.06;2069762;28;20295;-64
2022/05/10 03:04:56;;;;;;;5.50;2.42;;;;;;;9.15;39.66;101820.94;2075903;28;20284;-65
2022/05/10 03:05:58;;;;;;;4.15;2.10;;;;;;;9.18;39.42;101814.28;2076838;28;20296;-64
2022/05/10 03:07:06;;;;;;;6.05;2.42;;;;;;;9.20;39.59;101818.34;2074183;28;20616;-64
2022/05/10 03:08:08;;;;;;;4.50;1.95;;;;;;;9.25;39.02;101828.38;2076091;28;20299;-64
2022/05/10 03:09:11;;;;;;;6.78;2.35;;;;;;;9.26;39.12;101822.75;2077574;28;20283;-64
2022/05/10 03:10:13;;;;;;;5.78;1.98;;;;;;;9.30;39.02;101820.44;2072169;28;20284;-64
2022/05/10 03:11:19;;;;;;;13.27;2.00;;;;;;;9.29;39.21;101816.09;2067701;28;20296;-64
2022/05/10 03:12:22;;;;;;;4.47;1.92;;;;;;;9.33;39.88;101822.66;2076194;28;20292;-62
2022/05/10 03:13:26;;;;;;;5.22;2.00;;;;;;;9.37;38.71;101818.44;2085406;28;20287;-63
2022/05/10 03:14:30;;;;;;;6.50;2.40;;;;;;;9.38;38.88;101820.03;2094737;28;20286;-65
2022/05/10 03:15:32;;;;;;;9.20;2.30;;;;;;;9.45;39.45;101819.91;2070695;28;20296;-64
2022/05/10 03:16:37;;;;;;;7.10;2.92;;;;;;;9.44;38.17;101813.72;2061222;28;20297;-65
2022/05/10 03:17:40;;;;;;;4.80;2.00;;;;;;;9.45;38.37;101812.66;2071316;28;20625;-64
2022/05/10 03:18:43;;;;;;;9.05;3.13;;;;;;;9.44;38.44;101813.72;2060045;28;20297;-64
2022/05/10 03:19:49;;;;;;;3.63;1.92;;;;;;;9.45;39.17;101806.47;2052763;28;20301;-64
2022/05/10 03:20:51;;;;;;;4.68;2.00;;;;;;;9.52;38.92;101815.22;2068430;28;20292;-64
2022/05/10 03:21:53;;;;;;;6.93;1.90;;;;;;;9.55;39.18;101808.53;2073488;28;20299;-64
2022/05/10 03:22:58;;;;;;;6.47;1.92;;;;;;;9.59;39.28;101807.81;2075993;28;20922;-64
2022/05/10 03:24:04;;;;;;;5.88;2.03;;;;;;;9.62;38.34;101809.22;2072882;28;20304;-63
2022/05/10 03:25:06;;;;;;;5.78;1.95;;;;;;;9.63;38.26;101814.34;2065347;28;20289;-63
2022/05/10 03:26:17;;;;;;;11.15;2.03;;;;;;;9.68;38.33;101808.25;2060046;28;20654;-63
2022/05/10 03:27:20;;;;;;;7.93;1.80;;;;;;;9.69;39.18;101816.06;2069993;28;20296;-64
2022/05/10 03:28:26;;;;;;;3.47;1.88;;;;;;;9.70;38.56;101814.19;2078702;28;20296;-64
2022/05/10 03:29:29;;;;;;;3.30;1.90;;;;;;;9.70;38.32;101803.44;2077312;28;20413;-64
2022/05/10 03:30:34;;;;;;;3.63;1.90;;;;;;;9.78;38.82;101810.31;2075868;28;20300;-65
2022/05/10 03:31:38;;;;;;;5.05;2.17;;;;;;;9.82;38.11;101808.75;2068012;28;20699;-64
2022/05/10 03:32:39;;;;;;;4.07;1.95;;;;;;;9.76;38.07;101810.53;2068692;28;20323;-65
2022/05/10 03:33:43;;;;;;;7.07;2.20;;;;;;;9.79;38.06;101806.56;2083266;28;20295;-65
2022/05/10 03:34:54;;;;;;;5.65;2.10;;;;;;;9.82;38.33;101814.13;2072066;28;20292;-65
2022/05/10 03:35:57;;;;;;;6.72;2.30;;;;;;;9.83;38.28;101815.75;2069189;28;20292;-65
2022/05/10 03:37:00;;;;;;;6.00;2.58;;;;;;;9.81;38.64;101805.25;2076204;28;20052;-69
2022/05/10 03:38:03;;;;;;;8.77;2.28;;;;;;;9.84;38.08;101812.03;2074211;28;20299;-64
2022/05/10 03:39:10;;;;;;;4.95;2.45;;;;;;;9.87;38.58;101806.97;2060800;28;20286;-65
2022/05/10 03:40:13;;;;;;;7.82;2.17;;;;;;;9.96;37.83;101815.44;2071462;28;20295;-64
2022/05/10 03:41:16;;;;;;;8.77;2.20;;;;;;;9.87;38.28;101806.97;2076590;28;20355;-64
2022/05/10 03:42:18;;;;;;;4.25;1.95;;;;;;;9.88;38.26;101813.97;2063317;28;20284;-65
2022/05/10 03:43:21;;;;;;;4.45;2.30;;;;;;;9.95;38.16;101811.94;2067854;28;20301;-65
2022/05/10 03:44:22;;;;;;;5.00;2.33;;;;;;;10.02;38.34;101819.03;2062712;28;20855;-64
2022/05/10 03:45:25;;;;;;;9.70;2.70;;;;;;;10.02;38.11;101808.28;2068642;28;20367;-64
2022/05/10 03:46:31;;;;;;;6.55;2.40;;;;;;;9.99;38.28;101806.88;2069289;28;20301;-64
2022/05/10 03:47:32;;;;;;;4.57;2.28;;;;;;;10.04;38.65;101817.72;2069544;28;20277;-64
2022/05/10 03:48:41;;;;;;;6.53;2.35;;;;;;;10.19;38.41;101809.09;2058224;28;20281;-64
2022/05/10 03:49:46;;;;;;;5.35;2.30;;;;;;;10.16;38.74;101806.91;2061684;28;20634;-64
2022/05/10 03:50:49;;;;;;;5.18;2.20;;;;;;;10.06;38.41;101809.44;2068918;28;20316;-63
2022/05/10 03:51:54;;;;;;;5.40;2.83;;;;;;;10.19;38.88;101807.22;2076537;28;20291;-64
2022/05/10 03:52:59;;;;;;;8.10;2.45;;;;;;;10.17;37.95;101811.22;2075282;28;20300;-64
2022/05/10 03:54:02;;;;;;;6.70;2.53;;;;;;;10.13;38.15;101812.75;2068352;28;20324;-64
2022/05/10 03:55:06;;;;;;;11.20;2.70;;;;;;;10.33;38.32;101806.91;2069384;28;20289;-64
2022/05/10 03:56:12;;;;;;;5.78;2.65;;;;;;;10.37;37.93;101811.56;2084976;28;20286;-63
2022/05/10 03:57:14;;;;;;;9.82;3.30;;;;;;;10.44;38.26;101801.44;2077630;28;20283;-63
2022/05/10 03:58:19;;;;;;;6.10;2.58;;;;;;;10.54;37.90;101806.16;2076202;28;20280;-64
2022/05/10 03:59:22;;;;;;;7.22;3.10;;;;;;;10.68;38.29;101814.66;2074904;28;20759;-63
2022/05/10 04:00:31;;;;;;;9.40;3.45;;;;;;;10.56;37.58;101813.97;2065157;28;20053;-64
2022/05/10 04:01:33;;;;;;;8.40;2.95;;;;;;;10.49;38.17;101802.56;2068397;28;20307;-64
2022/05/10 04:02:35;;;;;;;8.65;2.83;;;;;;;10.51;37.41;101806.66;2075545;28;20299;-64
2022/05/10 04:03:36;;;;;;;9.35;2.50;;;;;;;10.61;37.87;101805.97;2067147;28;20272;-64
2022/05/10 04:04:41;;;;;;;5.03;2.20;;;;;;;10.81;37.23;101800.03;2067818;28;20292;-64
2022/05/10 04:05:43;;;;;;;5.85;2.50;;;;;;;10.84;37.14;101804.94;2082012;28;20283;-64
2022/05/10 04:06:49;;;;;;;7.53;2.90;;;;;;;10.89;37.09;101808.50;2075350;28;20304;-63
2022/05/10 04:07:53;;;;;;;6.13;2.47;;;;;;;10.83;37.29;101804.13;2075869;28;20284;-63
2022/05/10 04:08:59;;;;;;;7.22;2.40;;;;;;;10.89;37.57;101808.50;2077439;28;20640;-65
2022/05/10 04:10:07;;;;;;;9.40;2.53;;;;;;;10.95;36.77;101811.25;2077322;28;20291;-65
2022/05/10 04:11:11;;;;;;;8.45;2.47;;;;;;;10.99;37.01;101812.38;2075467;28;20352;-64
2022/05/10 04:12:16;;;;;;;11.82;2.63;;;;;;;11.17;36.34;101803.19;2075002;28;20049;-64
2022/05/10 04:13:20;;;;;;;7.28;2.40;;;;;;;11.17;36.41;101814.75;2073619;28;20284;-64
2022/05/10 04:14:22;;;;;;;6.25;2.22;;;;;;;11.29;36.50;101806.56;2075415;28;20659;-64
2022/05/10 04:15:24;;;;;;;8.75;2.20;;;;;;;11.22;36.56;101812.09;2072920;28;20292;-64
2022/05/10 04:16:29;;;;;;;4.57;2.00;;;;;;;11.36;36.35;101813.34;2075097;28;20287;-63
2022/05/10 04:17:34;;;;;;;8.70;2.42;;;;;;;11.35;36.63;101803.66;2073816;28;20311;-64
2022/05/10 04:18:40;;;;;;;5.53;1.98;;;;;;;11.58;36.03;101809.81;2075512;28;20299;-64
2022/05/10 04:19:43;;;;;;;5.97;2.20;;;;;;;11.68;36.26;101807.22;2069835;28;20054;-63
2022/05/10 04:20:49;;;;;;;7.32;2.20;;;;;;;11.62;36.62;101805.53;2070277;28;20284;-64
2022/05/10 04:21:52;;;;;;;6.13;2.40;;;;;;;11.83;36.30;101807.34;2068367;28;20682;-64
2022/05/10 04:22:59;;;;;;;6.03;2.28;;;;;;;11.85;35.73;101806.31;2062660;28;20057;-64
2022/05/10 04:24:03;;;;;;;5.80;2.40;;;;;;;11.92;35.95;101799.66;2075996;28;20779;-65
2022/05/10 04:25:11;;;;;;;4.97;2.05;;;;;;;11.78;35.72;101799.22;2065913;28;20603;-66
2022/05/10 04:26:15;;;;;;;4.88;2.00;;;;;;;11.76;35.99;101795.19;2066255;28;20042;-65
2022/05/10 04:27:18;;;;;;;4.45;2.38;;;;;;;11.83;36.20;101801.97;2067063;28;20050;-65
2022/05/10 04:28:22;;;;;;;8.02;2.03;;;;;;;12.11;36.06;101792.00;2067314;28;20709;-65
2022/05/10 04:29:28;;;;;;;5.28;2.20;;;;;;;12.19;35.61;101794.19;2067848;28;20053;-63
2022/05/10 04:30:30;;;;;;;6.18;2.00;;;;;;;12.18;35.94;101797.97;2075530;28;20041;-63
2022/05/10 04:31:34;;;;;;;6.63;2.38;;;;;;;12.22;36.27;101800.94;2070834;28;20487;-63
2022/05/10 04:32:38;;;;;;;4.47;2.00;;;;;;;12.44;35.86;101803.53;2075603;28;20045;-62
2022/05/10 04:33:40;;;;;;;6.30;2.25;;;;;;;12.56;35.46;101796.03;2073787;28;20045;-63
2022/05/10 04:34:45;;;;;;;8.30;2.33;;;;;;;12.60;35.11;101799.84;2066217;28;20065;-62
2022/05/10 04:35:47;;;;;;;9.77;2.33;;;;;;;12.66;35.27;101788.00;2072384;28;20042;-62
2022/05/10 04:36:49;;;;;;;8.70;2.33;;;;;;;12.92;35.20;101785.41;2061255;28;20068;-65
2022/05/10 04:37:54;;;;;;;4.57;2.45;;;;;;;12.94;34.47;101789.47;2059001;28;20488;-64
2022/05/10 04:38:59;;;;;;;8.15;2.00;;;;;;;13.07;34.63;101792.75;2059159;28;20453;-61
2022/05/10 04:41:29;;;;;;;9.23;2.47;;;;;;;13.21;34.28;101785.81;2073180;28;20041;-61
2022/05/10 04:42:34;;;;;;;4.60;2.30;;;;;;;13.36;33.94;101790.44;2066828;28;20111;-62
2022/05/10 04:43:37;;;;;;;5.35;1.95;;;;;;;13.42;33.47;101790.19;2058139;28;20425;-63
2022/05/10 04:44:40;;;;;;;9.45;2.28;;;;;;;13.25;33.71;101783.41;2058006;28;20050;-62
2022/05/10 04:45:43;;;;;;;4.43;1.92;;;;;;;13.51;33.82;101787.78;2071889;28;20058;-60
2022/05/10 04:46:45;;;;;;;4.55;2.45;;;;;;;13.75;33.18;101793.47;2068703;28;20062;-65
2022/05/10 04:47:50;;;;;;;6.72;2.53;;;;;;;13.87;33.34;101791.34;2072831;28;20045;-62
2022/05/10 04:48:54;;;;;;;7.47;2.58;;;;;;;13.94;33.07;101780.25;2066460;28;20053;-65
2022/05/10 04:49:57;;;;;;;5.72;2.20;;;;;;;13.97;33.33;101785.09;2068373;28;20072;-66
2022/05/10 04:51:06;;;;;;;6.28;2.55;;;;;;;13.86;33.13;101786.97;2051709;28;20043;-61
2022/05/10 04:52:12;;;;;;;4.25;2.10;;;;;;;14.10;33.34;101789.97;2052435;28;20039;-61
2022/05/10 04:53:15;;;;;;;9.90;2.40;;;;;;;14.19;33.00;101781.31;2073724;28;20041;-61
2022/05/10 04:54:17;;;;;;;6.70;2.20;;;;;;;14.29;33.00;101787.50;2072761;28;20064;-62
2022/05/10 04:55:20;;;;;;;6.25;2.17;;;;;;;14.49;32.96;101786.63;2066777;28;20406;-63
2022/05/10 04:56:25;;;;;;;4.97;2.30;;;;;;;14.55;32.69;101776.66;2066959;28;20046;-61
2022/05/10 04:57:30;;;;;;;5.78;2.22;;;;;;;14.35;32.73;101782.91;2066020;28;20030;-62
2022/05/10 04:58:39;;;;;;;3.92;2.58;;;;;;;14.48;32.84;101784.22;2069710;28;20061;-62
2022/05/10 04:59:40;;;;;;;5.07;2.35;;;;;;;14.75;32.71;101773.06;2075076;28;20044;-62
2022/05/10 05:00:44;;;;;;;6.82;2.10;;;;;;;15.03;32.10;101780.50;2074343;28;20060;-62
2022/05/10 05:01:50;;;;;;;8.27;2.55;;;;;;;15.05;32.07;101781.03;2074621;28;20080;-61
2022/05/10 05:02:53;;;;;;;7.47;2.47;;;;;;;15.14;31.96;101777.78;2075796;28;20060;-62
2022/05/10 05:03:56;;;;;;;7.22;2.17;;;;;;;15.22;31.78;101775.25;2075171;28;20056;-62
2022/05/10 05:04:58;;;;;;;6.28;2.13;;;;;;;15.28;31.65;101782.28;2064241;28;20046;-62
2022/05/10 05:06:04;;;;;;;6.65;2.17;;;;;;;15.33;31.75;101772.50;2069727;28;20054;-62
2022/05/10 05:07:06;;;;;;;7.20;2.40;;;;;;;15.70;31.58;101770.09;2071820;28;20536;-62
2022/05/10 05:08:10;;;;;;;6.13;2.30;;;;;;;15.72;30.71;101767.91;2073359;28;20052;-63
2022/05/10 05:09:11;;;;;;;5.53;2.13;;;;;;;15.80;30.90;101768.41;2066326;28;20044;-61
2022/05/10 05:10:15;;;;;;;6.57;2.85;;;;;;;15.84;30.52;101767.53;2073994;28;20048;-62
2022/05/10 05:11:17;;;;;;;5.40;2.38;;;;;;;15.69;30.78;101762.25;2058418;28;20425;-62
2022/05/10 05:12:19;;;;;;;8.15;2.70;;;;;;;15.69;31.20;101768.47;2053429;28;20079;-62
2022/05/10 05:13:21;;;;;;;7.78;2.40;;;;;;;15.85;31.09;101757.50;2074187;28;20493;-63
2022/05/10 05:14:31;;;;;;;7.25;3.08;;;;;;;15.80;30.85;101761.06;2074219;28;20386;-63
2022/05/10 05:15:34;;;;;;;4.90;2.30;;;;;;;16.13;30.76;101764.03;2081843;28;20036;-62
2022/05/10 05:16:39;;;;;;;5.82;2.30;;;;;;;16.10;30.87;101767.31;2081762;28;20041;-62
2022/05/10 05:17:42;;;;;;;11.05;2.15;;;;;;;16.26;30.19;101762.53;2064587;28;20173;-63
2022/05/10 05:18:46;;;;;;;7.53;2.35;;;;;;;16.62;30.60;101763.78;2064861;28;20054;-62
2022/05/10 05:19:48;;;;;;;6.18;2.25;;;;;;;16.84;30.35;101760.56;2073730;28;20525;-62
2022/05/10 05:20:53;;;;;;;7.15;3.05;;;;;;;16.87;30.13;101756.44;2058373;28;20049;-62
2022/05/10 05:21:57;;;;;;;7.15;2.70;;;;;;;17.16;29.84;101764.47;2066227;28;20046;-62
2022/05/10 05:23:01;;;;;;;10.43;3.00;;;;;;;17.22;29.93;101763.31;2074061;28;20037;-62